Terminal Aerodrome Forecast
Issued by NWS

Home | Current Version | Previous Version | Text Only | Print | Product List | Glossary On
Versions: 1 2 3 4 5 6 7 8 9 10 11 12 13 14 15 16 17 18 19 20 21 22 23 24
000
FTUS45 KSLC 180533
TAFLGU
TAF
KLGU 180533Z 1806/1906 VRB04KT P6SM FEW120
     FM181500 20007KT P6SM SCT100
     FM182000 21011KT P6SM BKN100
     FM190200 VRB04KT P6SM VCSH FEW080 BKN100=

USA.gov is the U.S. government's official web portal to all federal, state and local government web resources and services.